sensor_id;sensor_type;location;lat;lon;timestamp;pressure;altitude;pressure_sealevel;temperature;humidity
7824;BME280;3957;48.61947800;9.05303100;2022-11-15T00:00:58;95904.84;;;3.46;100.00
7824;BME280;3957;48.61947800;9.05303100;2022-11-15T00:02:37;95901.22;;;3.39;100.00
7824;BME280;3957;48.61947800;9.05303100;2022-11-15T00:04:17;95892.94;;;3.34;100.00
7824;BME280;3957;48.61947800;9.05303100;2022-11-15T00:06:01;95894.25;;;3.30;100.00
7824;BME280;3957;48.61947800;9.05303100;2022-11-15T00:07:41;95896.56;;;3.25;100.00
7824;BME280;3957;48.61947800;9.05303100;2022-11-15T00:09:20;95887.31;;;3.20;100.00
7824;BME280;3957;48.61947800;9.05303100;2022-11-15T00:11:01;95891.09;;;3.18;100.00
7824;BME280;3957;48.61947800;9.05303100;2022-11-15T00:12:40;95893.75;;;3.18;100.00
7824;BME280;3957;48.61947800;9.05303100;2022-11-15T00:14:19;95893.91;;;3.16;100.00
7824;BME280;3957;48.61947800;9.05303100;2022-11-15T00:16:00;95885.47;;;3.13;100.00
7824;BME280;3957;48.61947800;9.05303100;2022-11-15T00:17:39;95890.41;;;3.08;100.00
7824;BME280;3957;48.61947800;9.05303100;2022-11-15T00:19:19;95884.47;;;3.05;100.00
7824;BME280;3957;48.61947800;9.05303100;2022-11-15T00:21:06;95880.97;;;3.05;100.00
7824;BME280;3957;48.61947800;9.05303100;2022-11-15T00:22:46;95875.69;;;3.05;100.00
7824;BME280;3957;48.61947800;9.05303100;2022-11-15T00:24:25;95872.22;;;3.04;100.00
7824;BME280;3957;48.61947800;9.05303100;2022-11-15T00:26:04;95866.25;;;3.02;100.00
7824;BME280;3957;48.61947800;9.05303100;2022-11-15T00:27:44;95871.72;;;3.01;100.00
7824;BME280;3957;48.61947800;9.05303100;2022-11-15T00:29:24;95877.84;;;3.01;100.00
7824;BME280;3957;48.61947800;9.05303100;2022-11-15T00:31:06;95878.00;;;3.00;100.00
7824;BME280;3957;48.61947800;9.05303100;2022-11-15T00:32:45;95879.00;;;2.99;100.00
7824;BME280;3957;48.61947800;9.05303100;2022-11-15T00:34:24;95873.03;;;2.97;100.00
7824;BME280;3957;48.61947800;9.05303100;2022-11-15T00:36:07;95869.56;;;2.96;100.00
7824;BME280;3957;48.61947800;9.05303100;2022-11-15T00:37:48;95868.91;;;2.94;100.00
7824;BME280;3957;48.61947800;9.05303100;2022-11-15T00:39:27;95864.28;;;2.96;100.00
7824;BME280;3957;48.61947800;9.05303100;2022-11-15T00:41:07;95864.31;;;3.04;100.00
7824;BME280;3957;48.61947800;9.05303100;2022-11-15T00:42:47;95864.94;;;3.06;100.00
7824;BME280;3957;48.61947800;9.05303100;2022-11-15T00:44:26;95858.19;;;3.04;100.00
7824;BME280;3957;48.61947800;9.05303100;2022-11-15T00:46:05;95859.19;;;3.03;100.00
7824;BME280;3957;48.61947800;9.05303100;2022-11-15T00:47:45;95861.81;;;3.03;100.00
7824;BME280;3957;48.61947800;9.05303100;2022-11-15T00:49:25;95860.16;;;3.02;100.00
7824;BME280;3957;48.61947800;9.05303100;2022-11-15T00:51:04;95855.22;;;3.07;100.00
7824;BME280;3957;48.61947800;9.05303100;2022-11-15T00:52:44;95855.22;;;3.07;100.00
7824;BME280;3957;48.61947800;9.05303100;2022-11-15T00:54:24;95857.03;;;3.06;100.00
7824;BME280;3957;48.61947800;9.05303100;2022-11-15T00:56:03;95852.22;;;3.02;100.00
7824;BME280;3957;48.61947800;9.05303100;2022-11-15T00:57:42;95849.09;;;3.06;100.00
7824;BME280;3957;48.61947800;9.05303100;2022-11-15T00:59:21;95853.41;;;3.08;100.00
7824;BME280;3957;48.61947800;9.05303100;2022-11-15T01:01:13;95846.97;;;3.10;100.00
7824;BME280;3957;48.61947800;9.05303100;2022-11-15T01:02:52;95848.47;;;3.13;100.00
7824;BME280;3957;48.61947800;9.05303100;2022-11-15T01:04:31;95849.78;;;3.09;100.00
7824;BME280;3957;48.61947800;9.05303100;2022-11-15T01:06:11;95843.31;;;3.03;100.00
7824;BME280;3957;48.61947800;9.05303100;2022-11-15T01:07:54;95849.25;;;3.05;100.00
7824;BME280;3957;48.61947800;9.05303100;2022-11-15T01:09:34;95845.00;;;3.12;100.00
7824;BME280;3957;48.61947800;9.05303100;2022-11-15T01:11:13;95846.31;;;3.16;100.00
7824;BME280;3957;48.61947800;9.05303100;2022-11-15T01:12:53;95847.97;;;3.17;100.00
7824;BME280;3957;48.61947800;9.05303100;2022-11-15T01:14:32;95843.50;;;3.18;100.00
7824;BME280;3957;48.61947800;9.05303100;2022-11-15T01:16:14;95845.00;;;3.20;100.00
7824;BME280;3957;48.61947800;9.05303100;2022-11-15T01:17:54;95834.56;;;3.19;100.00
7824;BME280;3957;48.61947800;9.05303100;2022-11-15T01:19:34;95840.03;;;3.17;100.00
7824;BME280;3957;48.61947800;9.05303100;2022-11-15T01:21:15;95841.19;;;3.15;100.00
7824;BME280;3957;48.61947800;9.05303100;2022-11-15T01:22:55;95841.50;;;3.12;100.00
7824;BME280;3957;48.61947800;9.05303100;2022-11-15T01:24:34;95836.22;;;3.12;100.00
7824;BME280;3957;48.61947800;9.05303100;2022-11-15T01:26:14;95838.69;;;3.13;100.00
7824;BME280;3957;48.61947800;9.05303100;2022-11-15T01:27:54;95832.75;;;3.11;100.00
7824;BME280;3957;48.61947800;9.05303100;2022-11-15T01:29:33;95833.91;;;3.09;100.00
7824;BME280;3957;48.61947800;9.05303100;2022-11-15T01:31:15;95831.44;;;3.07;100.00
7824;BME280;3957;48.61947800;9.05303100;2022-11-15T01:32:55;95831.59;;;3.05;100.00
7824;BME280;3957;48.61947800;9.05303100;2022-11-15T01:34:34;95834.06;;;3.07;100.00
7824;BME280;3957;48.61947800;9.05303100;2022-11-15T01:36:19;95822.53;;;3.08;100.00
7824;BME280;3957;48.61947800;9.05303100;2022-11-15T01:38:00;95824.81;;;3.11;100.00
7824;BME280;3957;48.61947800;9.05303100;2022-11-15T01:39:40;95819.03;;;3.16;100.00
7824;BME280;3957;48.61947800;9.05303100;2022-11-15T01:41:28;95820.38;;;3.20;100.00
7824;BME280;3957;48.61947800;9.05303100;2022-11-15T01:43:26;95814.91;;;3.21;100.00
7824;BME280;3957;48.61947800;9.05303100;2022-11-15T01:45:13;95823.34;;;3.25;100.00
7824;BME280;3957;48.61947800;9.05303100;2022-11-15T01:46:53;95821.34;;;3.27;100.00
7824;BME280;3957;48.61947800;9.05303100;2022-11-15T01:48:34;95818.41;;;3.30;100.00
7824;BME280;3957;48.61947800;9.05303100;2022-11-15T01:50:19;95820.03;;;3.31;100.00
7824;BME280;3957;48.61947800;9.05303100;2022-11-15T01:52:04;95816.06;;;3.44;100.00
7824;BME280;3957;48.61947800;9.05303100;2022-11-15T01:53:46;95811.28;;;3.39;100.00
7824;BME280;3957;48.61947800;9.05303100;2022-11-15T01:55:27;95808.13;;;3.35;100.00
7824;BME280;3957;48.61947800;9.05303100;2022-11-15T01:57:09;95814.09;;;3.37;100.00
7824;BME280;3957;48.61947800;9.05303100;2022-11-15T01:58:49;95812.94;;;3.48;100.00
7824;BME280;3957;48.61947800;9.05303100;2022-11-15T02:00:30;95802.84;;;3.52;100.00
7824;BME280;3957;48.61947800;9.05303100;2022-11-15T02:02:10;95812.59;;;3.51;100.00
7824;BME280;3957;48.61947800;9.05303100;2022-11-15T02:04:21;95807.31;;;3.60;100.00
7824;BME280;3957;48.61947800;9.05303100;2022-11-15T02:05:59;95805.97;;;3.64;100.00
7824;BME280;3957;48.61947800;9.05303100;2022-11-15T02:07:38;95802.81;;;3.60;100.00
7824;BME280;3957;48.61947800;9.05303100;2022-11-15T02:09:18;95807.31;;;3.60;100.00
7824;BME280;3957;48.61947800;9.05303100;2022-11-15T02:10:58;95804.50;;;3.61;100.00
7824;BME280;3957;48.61947800;9.05303100;2022-11-15T02:12:37;95802.19;;;3.58;100.00
7824;BME280;3957;48.61947800;9.05303100;2022-11-15T02:14:18;95794.59;;;3.55;100.00
7824;BME280;3957;48.61947800;9.05303100;2022-11-15T02:34:08;95770.59;;;3.65;100.00
7824;BME280;3957;48.61947800;9.05303100;2022-11-15T02:37:51;95772.75;;;3.61;100.00
7824;BME280;3957;48.61947800;9.05303100;2022-11-15T02:39:38;95775.06;;;3.56;100.00
7824;BME280;3957;48.61947800;9.05303100;2022-11-15T02:41:48;95777.41;;;3.51;100.00
7824;BME280;3957;48.61947800;9.05303100;2022-11-15T02:43:39;95771.78;;;3.46;100.00
7824;BME280;3957;48.61947800;9.05303100;2022-11-15T02:45:56;95775.56;;;3.43;100.00
7824;BME280;3957;48.61947800;9.05303100;2022-11-15T02:47:44;95767.31;;;3.38;100.00
7824;BME280;3957;48.61947800;9.05303100;2022-11-15T02:49:28;95768.00;;;3.32;100.00
7824;BME280;3957;48.61947800;9.05303100;2022-11-15T02:51:08;95761.53;;;3.26;100.00
7824;BME280;3957;48.61947800;9.05303100;2022-11-15T02:52:48;95757.41;;;3.23;100.00
7824;BME280;3957;48.61947800;9.05303100;2022-11-15T02:54:32;95756.56;;;3.23;100.00
7824;BME280;3957;48.61947800;9.05303100;2022-11-15T02:56:12;95763.19;;;3.19;100.00
7824;BME280;3957;48.61947800;9.05303100;2022-11-15T02:57:58;95753.78;;;3.16;100.00
7824;BME280;3957;48.61947800;9.05303100;2022-11-15T03:02:24;95753.09;;;3.22;100.00
7824;BME280;3957;48.61947800;9.05303100;2022-11-15T03:08:01;95749.66;;;3.22;100.00
7824;BME280;3957;48.61947800;9.05303100;2022-11-15T03:09:53;95746.16;;;3.21;100.00
7824;BME280;3957;48.61947800;9.05303100;2022-11-15T03:11:38;95744.03;;;3.25;100.00
7824;BME280;3957;48.61947800;9.05303100;2022-11-15T03:15:10;95737.41;;;3.29;100.00
7824;BME280;3957;48.61947800;9.05303100;2022-11-15T03:18:36;95735.41;;;3.39;100.00
7824;BME280;3957;48.61947800;9.05303100;2022-11-15T03:20:19;95731.13;;;3.47;100.00
7824;BME280;3957;48.61947800;9.05303100;2022-11-15T03:22:00;95721.31;;;3.55;100.00
7824;BME280;3957;48.61947800;9.05303100;2022-11-15T03:23:42;95734.22;;;3.58;100.00
7824;BME280;3957;48.61947800;9.05303100;2022-11-15T03:25:25;95729.41;;;3.62;100.00
7824;BME280;3957;48.61947800;9.05303100;2022-11-15T03:27:07;95732.72;;;3.64;100.00
7824;BME280;3957;48.61947800;9.05303100;2022-11-15T03:28:55;95730.91;;;3.65;100.00
7824;BME280;3957;48.61947800;9.05303100;2022-11-15T03:30:37;95727.25;;;3.66;100.00
7824;BME280;3957;48.61947800;9.05303100;2022-11-15T03:32:21;95727.25;;;3.66;100.00
7824;BME280;3957;48.61947800;9.05303100;2022-11-15T03:34:05;95732.38;;;3.67;100.00
7824;BME280;3957;48.61947800;9.05303100;2022-11-15T03:35:47;95722.44;;;3.69;100.00
7824;BME280;3957;48.61947800;9.05303100;2022-11-15T03:39:13;95728.56;;;3.70;100.00
7824;BME280;3957;48.61947800;9.05303100;2022-11-15T03:41:23;95716.97;;;3.71;100.00
7824;BME280;3957;48.61947800;9.05303100;2022-11-15T03:47:07;95713.91;;;3.59;100.00
7824;BME280;3957;48.61947800;9.05303100;2022-11-15T03:50:19;95709.75;;;3.56;100.00
7824;BME280;3957;48.61947800;9.05303100;2022-11-15T03:51:26;95714.88;;;3.58;100.00
7824;BME280;3957;48.61947800;9.05303100;2022-11-15T03:53:05;95719.81;;;3.61;100.00
7824;BME280;3957;48.61947800;9.05303100;2022-11-15T03:54:49;95721.94;;;3.66;100.00
7824;BME280;3957;48.61947800;9.05303100;2022-11-15T03:56:29;95715.66;;;3.67;100.00
7824;BME280;3957;48.61947800;9.05303100;2022-11-15T03:58:09;95709.06;;;3.63;100.00
7824;BME280;3957;48.61947800;9.05303100;2022-11-15T03:59:48;95706.09;;;3.57;100.00
7824;BME280;3957;48.61947800;9.05303100;2022-11-15T04:01:27;95711.72;;;3.54;100.00
7824;BME280;3957;48.61947800;9.05303100;2022-11-15T04:03:07;95706.28;;;3.56;100.00
7824;BME280;3957;48.61947800;9.05303100;2022-11-15T04:04:47;95708.09;;;3.55;100.00
7824;BME280;3957;48.61947800;9.05303100;2022-11-15T04:06:26;95711.09;;;3.52;100.00
7824;BME280;3957;48.61947800;9.05303100;2022-11-15T04:08:05;95708.94;;;3.48;100.00
7824;BME280;3957;48.61947800;9.05303100;2022-11-15T04:09:45;95710.25;;;3.44;100.00
7824;BME280;3957;48.61947800;9.05303100;2022-11-15T04:11:43;95711.28;;;3.43;100.00
7824;BME280;3957;48.61947800;9.05303100;2022-11-15T04:13:22;95699.84;;;3.42;100.00
7824;BME280;3957;48.61947800;9.05303100;2022-11-15T04:16:48;95698.84;;;3.51;100.00
7824;BME280;3957;48.61947800;9.05303100;2022-11-15T04:18:27;95710.75;;;3.55;100.00
7824;BME280;3957;48.61947800;9.05303100;2022-11-15T04:20:21;95710.56;;;3.65;100.00
7824;BME280;3957;48.61947800;9.05303100;2022-11-15T04:22:19;95713.19;;;3.73;100.00
7824;BME280;3957;48.61947800;9.05303100;2022-11-15T04:24:17;95702.91;;;3.79;100.00
7824;BME280;3957;48.61947800;9.05303100;2022-11-15T04:25:59;95705.22;;;3.82;100.00
7824;BME280;3957;48.61947800;9.05303100;2022-11-15T04:27:39;95708.50;;;3.84;100.00
7824;BME280;3957;48.61947800;9.05303100;2022-11-15T04:29:18;95698.75;;;3.84;100.00
7824;BME280;3957;48.61947800;9.05303100;2022-11-15T04:31:13;95700.41;;;3.85;100.00
7824;BME280;3957;48.61947800;9.05303100;2022-11-15T04:32:52;95706.53;;;3.86;100.00
7824;BME280;3957;48.61947800;9.05303100;2022-11-15T04:34:32;95707.69;;;3.83;100.00
7824;BME280;3957;48.61947800;9.05303100;2022-11-15T04:36:11;95700.41;;;3.85;100.00
7824;BME280;3957;48.61947800;9.05303100;2022-11-15T04:38:10;95700.06;;;3.88;100.00
7824;BME280;3957;48.61947800;9.05303100;2022-11-15T04:39:49;95689.78;;;3.94;100.00
7824;BME280;3957;48.61947800;9.05303100;2022-11-15T04:41:29;95688.41;;;3.98;100.00
7824;BME280;3957;48.61947800;9.05303100;2022-11-15T04:43:08;95693.03;;;4.04;100.00
7824;BME280;3957;48.61947800;9.05303100;2022-11-15T04:44:47;95688.06;;;4.09;100.00
7824;BME280;3957;48.61947800;9.05303100;2022-11-15T04:46:27;95689.38;;;4.13;100.00
7824;BME280;3957;48.61947800;9.05303100;2022-11-15T04:48:06;95685.38;;;4.17;100.00
7824;BME280;3957;48.61947800;9.05303100;2022-11-15T04:49:45;95686.84;;;4.20;100.00
7824;BME280;3957;48.61947800;9.05303100;2022-11-15T04:51:25;95684.97;;;4.29;100.00
7824;BME280;3957;48.61947800;9.05303100;2022-11-15T04:53:04;95685.59;;;4.31;100.00
7824;BME280;3957;48.61947800;9.05303100;2022-11-15T04:54:43;95679.97;;;4.34;100.00
7824;BME280;3957;48.61947800;9.05303100;2022-11-15T04:56:23;95678.16;;;4.34;100.00
7824;BME280;3957;48.61947800;9.05303100;2022-11-15T04:58:03;95675.19;;;4.29;100.00
7824;BME280;3957;48.61947800;9.05303100;2022-11-15T04:59:42;95679.38;;;4.23;100.00
7824;BME280;3957;48.61947800;9.05303100;2022-11-15T05:01:21;95677.13;;;4.12;100.00
7824;BME280;3957;48.61947800;9.05303100;2022-11-15T05:03:01;95683.09;;;4.06;100.00
7824;BME280;3957;48.61947800;9.05303100;2022-11-15T05:04:59;95676.38;;;3.95;100.00
7824;BME280;3957;48.61947800;9.05303100;2022-11-15T05:06:38;95674.41;;;3.89;100.00
7824;BME280;3957;48.61947800;9.05303100;2022-11-15T05:08:17;95680.06;;;3.86;100.00
7824;BME280;3957;48.61947800;9.05303100;2022-11-15T05:09:57;95679.25;;;3.85;100.00
7824;BME280;3957;48.61947800;9.05303100;2022-11-15T05:11:36;95672.16;;;3.78;100.00
7824;BME280;3957;48.61947800;9.05303100;2022-11-15T05:13:15;95678.94;;;3.72;100.00
7824;BME280;3957;48.61947800;9.05303100;2022-11-15T05:14:54;95678.78;;;3.73;100.00
7824;BME280;3957;48.61947800;9.05303100;2022-11-15T05:16:33;95668.34;;;3.80;100.00
7824;BME280;3957;48.61947800;9.05303100;2022-11-15T05:18:13;95669.63;;;3.84;100.00
7824;BME280;3957;48.61947800;9.05303100;2022-11-15T05:19:52;95671.13;;;3.87;100.00
7824;BME280;3957;48.61947800;9.05303100;2022-11-15T05:21:32;95675.56;;;3.86;100.00
7824;BME280;3957;48.61947800;9.05303100;2022-11-15T05:23:12;95669.47;;;3.86;100.00
7824;BME280;3957;48.61947800;9.05303100;2022-11-15T05:24:51;95667.97;;;3.83;100.00
7824;BME280;3957;48.61947800;9.05303100;2022-11-15T05:26:30;95660.22;;;3.82;100.00
7824;BME280;3957;48.61947800;9.05303100;2022-11-15T05:28:09;95664.84;;;3.80;100.00
7824;BME280;3957;48.61947800;9.05303100;2022-11-15T05:29:49;95658.75;;;3.79;100.00
7824;BME280;3957;48.61947800;9.05303100;2022-11-15T05:31:28;95660.06;;;3.75;100.00
7824;BME280;3957;48.61947800;9.05303100;2022-11-15T05:33:07;95655.78;;;3.74;100.00
7824;BME280;3957;48.61947800;9.05303100;2022-11-15T05:34:46;95651.66;;;3.71;100.00
7824;BME280;3957;48.61947800;9.05303100;2022-11-15T05:36:36;95655.47;;;3.69;100.00
7824;BME280;3957;48.61947800;9.05303100;2022-11-15T05:38:16;95652.34;;;3.65;100.00
7824;BME280;3957;48.61947800;9.05303100;2022-11-15T05:39:56;95649.88;;;3.64;100.00
7824;BME280;3957;48.61947800;9.05303100;2022-11-15T05:41:49;95651.84;;;3.62;100.00
7824;BME280;3957;48.61947800;9.05303100;2022-11-15T05:43:32;95646.91;;;3.58;100.00
7824;BME280;3957;48.61947800;9.05303100;2022-11-15T05:45:12;95645.25;;;3.57;100.00
7824;BME280;3957;48.61947800;9.05303100;2022-11-15T05:46:52;95639.31;;;3.55;100.00
7824;BME280;3957;48.61947800;9.05303100;2022-11-15T05:48:37;95643.47;;;3.50;100.00
7824;BME280;3957;48.61947800;9.05303100;2022-11-15T05:50:18;95647.47;;;3.46;100.00
7824;BME280;3957;48.61947800;9.05303100;2022-11-15T05:51:57;95643.97;;;3.45;100.00
7824;BME280;3957;48.61947800;9.05303100;2022-11-15T05:53:37;95651.09;;;3.45;100.00
7824;BME280;3957;48.61947800;9.05303100;2022-11-15T05:55:16;95647.13;;;3.40;100.00
7824;BME280;3957;48.61947800;9.05303100;2022-11-15T05:56:56;95647.66;;;3.36;100.00
7824;BME280;3957;48.61947800;9.05303100;2022-11-15T05:58:36;95647.31;;;3.31;100.00
7824;BME280;3957;48.61947800;9.05303100;2022-11-15T06:00:16;95651.13;;;3.28;100.00
7824;BME280;3957;48.61947800;9.05303100;2022-11-15T06:01:55;95651.31;;;3.27;100.00
7824;BME280;3957;48.61947800;9.05303100;2022-11-15T06:03:34;95651.31;;;3.27;100.00
7824;BME280;3957;48.61947800;9.05303100;2022-11-15T06:05:14;95646.69;;;3.29;100.00
7824;BME280;3957;48.61947800;9.05303100;2022-11-15T06:06:53;95647.97;;;3.33;100.00
7824;BME280;3957;48.61947800;9.05303100;2022-11-15T06:08:32;95651.94;;;3.37;100.00
7824;BME280;3957;48.61947800;9.05303100;2022-11-15T06:10:11;95655.75;;;3.34;100.00
7824;BME280;3957;48.61947800;9.05303100;2022-11-15T06:11:51;95650.13;;;3.37;100.00
7824;BME280;3957;48.61947800;9.05303100;2022-11-15T06:13:30;95646.31;;;3.40;100.00
7824;BME280;3957;48.61947800;9.05303100;2022-11-15T06:15:09;95650.94;;;3.38;100.00
7824;BME280;3957;48.61947800;9.05303100;2022-11-15T06:16:48;95650.59;;;3.41;100.00
7824;BME280;3957;48.61947800;9.05303100;2022-11-15T06:18:28;95654.25;;;3.40;100.00
7824;BME280;3957;48.61947800;9.05303100;2022-11-15T06:20:07;95649.47;;;3.35;100.00
7824;BME280;3957;48.61947800;9.05303100;2022-11-15T06:21:47;95652.94;;;3.36;100.00
7824;BME280;3957;48.61947800;9.05303100;2022-11-15T06:23:27;95646.00;;;3.35;100.00
7824;BME280;3957;48.61947800;9.05303100;2022-11-15T06:25:07;95643.53;;;3.33;100.00
7824;BME280;3957;48.61947800;9.05303100;2022-11-15T06:26:47;95652.94;;;3.36;100.00
7824;BME280;3957;48.61947800;9.05303100;2022-11-15T06:28:30;95658.06;;;3.37;100.00
7824;BME280;3957;48.61947800;9.05303100;2022-11-15T06:30:10;95652.25;;;3.42;100.00
7824;BME280;3957;48.61947800;9.05303100;2022-11-15T06:31:49;95657.06;;;3.47;100.00
7824;BME280;3957;48.61947800;9.05303100;2022-11-15T06:33:29;95666.28;;;3.51;100.00
7824;BME280;3957;48.61947800;9.05303100;2022-11-15T06:35:08;95652.72;;;3.54;100.00
7824;BME280;3957;48.61947800;9.05303100;2022-11-15T06:36:47;95660.31;;;3.57;100.00
7824;BME280;3957;48.61947800;9.05303100;2022-11-15T06:38:27;95663.44;;;3.61;100.00
7824;BME280;3957;48.61947800;9.05303100;2022-11-15T06:40:08;95668.03;;;3.67;100.00
7824;BME280;3957;48.61947800;9.05303100;2022-11-15T06:41:48;95665.38;;;3.75;100.00
7824;BME280;3957;48.61947800;9.05303100;2022-11-15T06:43:27;95664.84;;;3.80;100.00
7824;BME280;3957;48.61947800;9.05303100;2022-11-15T06:45:07;95666.47;;;3.89;100.00
7824;BME280;3957;48.61947800;9.05303100;2022-11-15T06:46:46;95664.94;;;3.95;100.00
7824;BME280;3957;48.61947800;9.05303100;2022-11-15T06:48:27;95660.50;;;3.95;100.00
7824;BME280;3957;48.61947800;9.05303100;2022-11-15T06:50:07;95661.63;;;4.01;100.00
7824;BME280;3957;48.61947800;9.05303100;2022-11-15T06:51:46;95655.50;;;4.00;100.00
7824;BME280;3957;48.61947800;9.05303100;2022-11-15T06:53:26;95666.38;;;4.05;100.00
7824;BME280;3957;48.61947800;9.05303100;2022-11-15T06:55:06;95668.41;;;4.03;100.00
7824;BME280;3957;48.61947800;9.05303100;2022-11-15T06:56:46;95662.97;;;3.97;100.00
7824;BME280;3957;48.61947800;9.05303100;2022-11-15T06:58:25;95669.88;;;3.98;100.00
7824;BME280;3957;48.61947800;9.05303100;2022-11-15T07:00:05;95669.59;;;3.92;100.00
7824;BME280;3957;48.61947800;9.05303100;2022-11-15T07:01:45;95668.44;;;3.95;100.00
7824;BME280;3957;48.61947800;9.05303100;2022-11-15T07:03:24;95672.72;;;3.96;100.00
7824;BME280;3957;48.61947800;9.05303100;2022-11-15T07:05:03;95665.63;;;3.97;100.00
7824;BME280;3957;48.61947800;9.05303100;2022-11-15T07:06:46;95674.88;;;4.01;100.00
7824;BME280;3957;48.61947800;9.05303100;2022-11-15T07:08:27;95677.16;;;4.04;100.00
7824;BME280;3957;48.61947800;9.05303100;2022-11-15T07:10:07;95673.53;;;4.05;100.00
7824;BME280;3957;48.61947800;9.05303100;2022-11-15T07:11:47;95668.69;;;4.08;100.00
7824;BME280;3957;48.61947800;9.05303100;2022-11-15T07:13:27;95665.53;;;4.13;100.00
7824;BME280;3957;48.61947800;9.05303100;2022-11-15T07:15:08;95664.19;;;4.17;100.00
7824;BME280;3957;48.61947800;9.05303100;2022-11-15T07:16:47;95661.00;;;4.22;100.00
7824;BME280;3957;48.61947800;9.05303100;2022-11-15T07:18:26;95663.13;;;4.26;100.00
7824;BME280;3957;48.61947800;9.05303100;2022-11-15T07:20:07;95657.69;;;4.28;100.00
7824;BME280;3957;48.61947800;9.05303100;2022-11-15T07:21:46;95667.38;;;4.36;100.00
7824;BME280;3957;48.61947800;9.05303100;2022-11-15T07:23:25;95670.16;;;4.42;100.00
7824;BME280;3957;48.61947800;9.05303100;2022-11-15T07:25:05;95665.59;;;4.51;100.00
7824;BME280;3957;48.61947800;9.05303100;2022-11-15T07:26:44;95658.28;;;4.62;100.00
7824;BME280;3957;48.61947800;9.05303100;2022-11-15T07:28:24;95657.47;;;4.76;100.00
7824;BME280;3957;48.61947800;9.05303100;2022-11-15T07:30:04;95661.00;;;4.91;100.00
7824;BME280;3957;48.61947800;9.05303100;2022-11-15T07:31:43;95669.72;;;5.00;100.00
7824;BME280;3957;48.61947800;9.05303100;2022-11-15T07:33:23;95662.63;;;5.16;100.00
7824;BME280;3957;48.61947800;9.05303100;2022-11-15T07:35:02;95660.97;;;5.30;100.00
7824;BME280;3957;48.61947800;9.05303100;2022-11-15T07:36:41;95659.72;;;5.40;100.00
7824;BME280;3957;48.61947800;9.05303100;2022-11-15T07:38:21;95657.06;;;5.55;100.00
7824;BME280;3957;48.61947800;9.05303100;2022-11-15T07:40:00;95657.72;;;5.72;100.00
7824;BME280;3957;48.61947800;9.05303100;2022-11-15T07:41:39;95647.34;;;6.07;100.00
7824;BME280;3957;48.61947800;9.05303100;2022-11-15T07:43:19;95651.06;;;6.50;100.00
7824;BME280;3957;48.61947800;9.05303100;2022-11-15T07:44:58;95650.72;;;6.74;100.00
7824;BME280;3957;48.61947800;9.05303100;2022-11-15T07:46:37;95644.41;;;6.82;100.00
7824;BME280;3957;48.61947800;9.05303100;2022-11-15T07:48:16;95644.47;;;6.89;100.00
7824;BME280;3957;48.61947800;9.05303100;2022-11-15T07:49:55;95649.03;;;6.95;100.00
7824;BME280;3957;48.61947800;9.05303100;2022-11-15T07:51:35;95636.16;;;6.98;100.00
7824;BME280;3957;48.61947800;9.05303100;2022-11-15T07:53:14;95638.16;;;6.90;100.00
7824;BME280;3957;48.61947800;9.05303100;2022-11-15T07:54:53;95642.69;;;6.96;100.00
7824;BME280;3957;48.61947800;9.05303100;2022-11-15T07:56:33;95627.50;;;6.90;100.00
7824;BME280;3957;48.61947800;9.05303100;2022-11-15T07:58:12;95622.84;;;6.92;100.00
7824;BME280;3957;48.61947800;9.05303100;2022-11-15T07:59:51;95631.63;;;6.92;100.00
7824;BME280;3957;48.61947800;9.05303100;2022-11-15T08:01:30;95626.44;;;6.84;100.00
7824;BME280;3957;48.61947800;9.05303100;2022-11-15T08:03:16;95625.13;;;6.73;100.00
7824;BME280;3957;48.61947800;9.05303100;2022-11-15T08:04:55;95619.88;;;6.58;100.00
7824;BME280;3957;48.61947800;9.05303100;2022-11-15T08:06:34;95618.47;;;6.62;100.00
7824;BME280;3957;48.61947800;9.05303100;2022-11-15T08:08:14;95614.75;;;6.57;100.00
7824;BME280;3957;48.61947800;9.05303100;2022-11-15T08:09:53;95617.66;;;6.62;100.00
7824;BME280;3957;48.61947800;9.05303100;2022-11-15T08:11:34;95625.00;;;6.60;100.00
7824;BME280;3957;48.61947800;9.05303100;2022-11-15T08:13:13;95619.31;;;6.63;100.00
7824;BME280;3957;48.61947800;9.05303100;2022-11-15T08:14:52;95623.78;;;6.62;100.00
7824;BME280;3957;48.61947800;9.05303100;2022-11-15T08:16:32;95623.38;;;6.59;100.00
7824;BME280;3957;48.61947800;9.05303100;2022-11-15T08:18:15;95625.25;;;6.65;100.00
7824;BME280;3957;48.61947800;9.05303100;2022-11-15T08:19:54;95623.84;;;6.69;100.00
7824;BME280;3957;48.61947800;9.05303100;2022-11-15T08:21:33;95616.53;;;6.71;100.00
7824;BME280;3957;48.61947800;9.05303100;2022-11-15T08:23:12;95615.50;;;6.72;100.00
7824;BME280;3957;48.61947800;9.05303100;2022-11-15T08:24:52;95615.94;;;6.76;100.00
7824;BME280;3957;48.61947800;9.05303100;2022-11-15T08:26:31;95607.19;;;6.82;100.00
7824;BME280;3957;48.61947800;9.05303100;2022-11-15T08:28:11;95610.09;;;6.87;100.00
7824;BME280;3957;48.61947800;9.05303100;2022-11-15T08:29:50;95615.09;;;6.97;100.00
7824;BME280;3957;48.61947800;9.05303100;2022-11-15T08:31:29;95610.47;;;7.06;100.00
7824;BME280;3957;48.61947800;9.05303100;2022-11-15T08:33:13;95609.91;;;7.17;100.00
7824;BME280;3957;48.61947800;9.05303100;2022-11-15T08:34:53;95602.00;;;7.30;100.00
7824;BME280;3957;48.61947800;9.05303100;2022-11-15T08:36:32;95597.41;;;7.46;100.00
7824;BME280;3957;48.61947800;9.05303100;2022-11-15T08:38:11;95586.19;;;7.57;100.00
7824;BME280;3957;48.61947800;9.05303100;2022-11-15T08:39:51;95589.78;;;7.78;100.00
7824;BME280;3957;48.61947800;9.05303100;2022-11-15T08:41:33;95584.09;;;7.94;100.00
7824;BME280;3957;48.61947800;9.05303100;2022-11-15T08:43:14;95578.00;;;8.14;100.00